createdAt,value
2019-03-31T00:01:20.999Z,51.87
2019-03-31T00:03:50.626Z,51.70
2019-03-31T00:06:20.032Z,49.93
2019-03-31T00:08:49.478Z,53.43
2019-03-31T00:11:18.952Z,52.13
2019-03-31T00:13:48.411Z,54.47
2019-03-31T00:16:19.219Z,54.57
2019-03-31T00:18:48.695Z,54.03
2019-03-31T00:21:18.159Z,56.30
2019-03-31T00:23:47.522Z,51.70
2019-03-31T00:26:16.936Z,52.10
2019-03-31T00:28:46.315Z,56.47
2019-03-31T00:31:22.079Z,51.23
2019-03-31T00:33:46.963Z,44.53
2019-03-31T00:36:16.490Z,41.73
2019-03-31T00:38:45.862Z,52.33
2019-03-31T00:41:15.253Z,50.80
2019-03-31T00:43:44.710Z,45.17
2019-03-31T00:46:14.334Z,49.97
2019-03-31T00:48:43.785Z,49.87
2019-03-31T00:51:13.238Z,54.53
2019-03-31T00:53:42.706Z,55.07
2019-03-31T00:56:12.237Z,58.10
2019-03-31T00:58:41.591Z,56.63
2019-03-31T01:01:35.709Z,54.47
2019-03-31T01:03:55.461Z,55.60
2019-03-31T01:06:25.770Z,59.03
2019-03-31T01:08:56.546Z,56.63
2019-03-31T01:11:27.742Z,79.00
2019-03-31T01:13:57.307Z,72.17
2019-03-31T01:16:29.213Z,71.03
2019-03-31T01:18:58.681Z,70.40
2019-03-31T01:21:28.117Z,63.97
2019-03-31T01:23:57.556Z,66.17
2019-03-31T01:26:26.910Z,65.93
2019-03-31T01:28:57.297Z,63.23
2019-03-31T01:31:28.453Z,68.53
2019-03-31T01:33:58.139Z,64.17
2019-03-31T01:36:27.558Z,69.13
2019-03-31T01:38:56.949Z,71.50
2019-03-31T01:41:26.697Z,70.37
2019-03-31T01:43:56.232Z,70.53
2019-03-31T01:46:26.325Z,65.63
2019-03-31T01:48:55.722Z,57.87
2019-03-31T01:51:25.170Z,55.87
2019-03-31T01:53:54.737Z,61.67
2019-03-31T01:56:24.860Z,59.13
2019-03-31T01:58:54.303Z,62.00
2019-03-31T02:01:23.883Z,62.47
2019-03-31T02:03:53.370Z,61.30
2019-03-31T02:06:22.879Z,63.60
2019-03-31T02:08:52.340Z,70.90
2019-03-31T02:11:21.811Z,70.70
2019-03-31T02:13:51.208Z,71.63
2019-03-31T02:16:20.559Z,71.10
2019-03-31T02:18:49.939Z,70.60
2019-03-31T02:21:19.364Z,62.03
2019-03-31T02:23:48.815Z,64.67
2019-03-31T02:26:18.177Z,63.37
2019-03-31T02:28:47.611Z,61.23
2019-03-31T02:31:17.052Z,59.67
2019-03-31T02:33:46.439Z,64.07
2019-03-31T02:36:15.912Z,64.10
2019-03-31T02:38:45.375Z,52.83
2019-03-31T02:41:14.936Z,63.53
2019-03-31T02:43:44.437Z,55.87
2019-03-31T02:46:14.049Z,57.73
2019-03-31T02:48:43.554Z,49.87
2019-03-31T02:51:13.214Z,51.43
2019-03-31T02:53:42.752Z,62.83
2019-03-31T02:56:14.873Z,51.63
2019-03-31T02:58:44.918Z,55.70
2019-03-31T03:01:15.451Z,64.50
2019-03-31T03:03:47.050Z,66.53
2019-03-31T03:06:17.873Z,57.37
2019-03-31T03:08:50.127Z,72.87
2019-03-31T03:11:20.829Z,72.30
2019-03-31T03:13:51.834Z,64.40
2019-03-31T03:16:22.111Z,64.13
2019-03-31T03:18:51.781Z,62.30
2019-03-31T03:21:24.105Z,73.83
2019-03-31T03:23:52.781Z,82.67
2019-03-31T03:26:22.441Z,75.73
2019-03-31T03:28:52.050Z,72.43
2019-03-31T03:31:21.562Z,80.23
2019-03-31T03:33:51.246Z,86.70
2019-03-31T03:36:20.764Z,76.83
2019-03-31T03:38:50.293Z,89.53
2019-03-31T03:41:19.728Z,87.87
2019-03-31T03:43:55.827Z,82.77
2019-03-31T03:46:20.259Z,90.70
2019-03-31T03:48:49.778Z,89.57
2019-03-31T03:51:19.190Z,88.30
2019-03-31T03:53:48.729Z,99.70
2019-03-31T03:56:18.138Z,93.93
2019-03-31T03:58:47.745Z,93.83
2019-03-31T04:01:19.986Z,97.90
2019-03-31T04:03:49.448Z,100.43
2019-03-31T04:06:18.861Z,108.67
2019-03-31T04:08:48.597Z,103.83
2019-03-31T04:11:29.008Z,112.43
2019-03-31T04:13:59.242Z,105.90
2019-03-31T04:16:28.839Z,100.90
2019-03-31T04:18:58.372Z,98.23
2019-03-31T04:21:28.012Z,109.77
2019-03-31T04:23:57.870Z,108.33
2019-03-31T04:26:27.574Z,114.93
2019-03-31T04:28:57.055Z,118.20
2019-03-31T04:31:26.544Z,114.87
2019-03-31T04:33:56.111Z,110.37
2019-03-31T04:36:25.702Z,109.23
2019-03-31T04:38:59.649Z,97.37
2019-03-31T04:41:26.363Z,105.93
2019-03-31T04:43:55.796Z,103.70
2019-03-31T04:46:25.329Z,105.47
2019-03-31T04:48:54.800Z,102.80
2019-03-31T04:51:24.381Z,100.50
2019-03-31T04:53:54.179Z,96.47
2019-03-31T04:56:23.692Z,88.13
2019-03-31T04:58:53.069Z,100.63
2019-03-31T05:01:22.548Z,92.77
2019-03-31T05:04:04.052Z,90.77
2019-03-31T05:06:23.302Z,92.33
2019-03-31T05:08:52.671Z,88.23
2019-03-31T05:11:22.157Z,83.83
2019-03-31T05:13:51.557Z,87.53
2019-03-31T05:16:20.952Z,83.37
2019-03-31T05:18:50.497Z,87.17
2019-03-31T05:21:19.905Z,86.13
2019-03-31T05:23:49.319Z,79.83
2019-03-31T05:26:18.803Z,92.47
2019-03-31T05:28:48.187Z,78.13
2019-03-31T05:31:17.702Z,88.67
2019-03-31T05:33:47.160Z,77.53
2019-03-31T05:36:16.585Z,78.43
2019-03-31T05:38:45.968Z,77.07
2019-03-31T05:41:15.401Z,76.33
2019-03-31T05:43:44.927Z,75.50
2019-03-31T05:46:14.428Z,69.97
2019-03-31T05:48:43.896Z,77.00
2019-03-31T05:51:13.527Z,75.57
2019-03-31T05:53:42.995Z,70.57
2019-03-31T05:56:12.471Z,70.80
2019-03-31T05:58:41.965Z,67.27
2019-03-31T06:01:11.389Z,68.87
2019-03-31T06:03:40.776Z,70.03
2019-03-31T06:06:10.206Z,69.97
2019-03-31T06:08:39.654Z,68.10
2019-03-31T06:11:09.152Z,64.13
2019-03-31T06:13:38.576Z,66.03
2019-03-31T06:16:08.004Z,61.83
2019-03-31T06:18:37.555Z,65.17
2019-03-31T06:21:07.048Z,61.27
2019-03-31T06:23:36.592Z,57.70
2019-03-31T06:26:06.214Z,54.90
2019-03-31T06:28:35.700Z,58.33
2019-03-31T06:31:05.176Z,54.30
2019-03-31T06:33:34.538Z,52.53
2019-03-31T06:36:04.007Z,55.43
2019-03-31T06:38:33.445Z,53.13
2019-03-31T06:41:03.916Z,54.37
2019-03-31T06:43:33.287Z,58.23
2019-03-31T06:46:02.886Z,51.37
2019-03-31T06:48:32.256Z,52.03
2019-03-31T06:51:01.735Z,46.30
2019-03-31T06:53:31.196Z,47.30
2019-03-31T06:56:00.600Z,51.53
2019-03-31T06:58:30.071Z,53.13
2019-03-31T07:00:59.628Z,52.43
2019-03-31T07:03:29.172Z,50.60
2019-03-31T07:05:59.087Z,47.30
2019-03-31T07:08:28.864Z,43.67
2019-03-31T07:10:59.700Z,38.33
2019-03-31T07:13:29.663Z,42.37
2019-03-31T07:15:59.098Z,40.20
2019-03-31T07:18:28.563Z,32.33
2019-03-31T07:20:58.012Z,37.67
2019-03-31T07:23:27.421Z,35.20
2019-03-31T07:25:56.874Z,36.90
2019-03-31T07:28:26.353Z,32.60
2019-03-31T07:30:55.731Z,31.07
2019-03-31T07:33:25.227Z,34.13
2019-03-31T07:35:54.714Z,27.00
2019-03-31T07:38:38.060Z,26.83
2019-03-31T07:40:55.461Z,23.47
2019-03-31T07:43:24.880Z,22.67
2019-03-31T07:45:55.798Z,22.53
2019-03-31T07:48:25.616Z,17.87
2019-03-31T07:50:55.045Z,19.30
2019-03-31T07:53:24.629Z,18.97
2019-03-31T07:55:54.022Z,19.30
2019-03-31T07:58:23.452Z,16.53
2019-03-31T08:00:52.883Z,16.60
2019-03-31T08:03:22.502Z,15.97
2019-03-31T08:05:51.878Z,14.00
2019-03-31T08:08:21.274Z,13.93
2019-03-31T08:10:50.675Z,14.77
2019-03-31T08:13:20.225Z,14.70
2019-03-31T08:15:49.627Z,13.77
2019-03-31T08:18:19.125Z,15.90
2019-03-31T08:20:48.549Z,16.60
2019-03-31T08:23:17.953Z,12.97
2019-03-31T08:25:47.351Z,13.17
2019-03-31T08:28:16.821Z,11.80
2019-03-31T08:30:46.212Z,11.20
2019-03-31T08:33:15.760Z,11.50
2019-03-31T08:35:47.513Z,9.67
2019-03-31T08:38:16.351Z,11.43
2019-03-31T08:40:45.742Z,11.43
2019-03-31T08:43:15.166Z,12.30
2019-03-31T08:45:44.552Z,11.37
2019-03-31T08:48:14.043Z,10.90
2019-03-31T08:50:43.424Z,17.27
2019-03-31T08:53:12.829Z,11.43
2019-03-31T08:55:42.275Z,10.93
2019-03-31T08:58:11.866Z,13.17
2019-03-31T09:00:51.731Z,10.87
2019-03-31T09:03:21.247Z,7.80
2019-03-31T09:06:01.675Z,7.80
2019-03-31T09:08:22.042Z,5.63
2019-03-31T09:10:51.585Z,5.80
2019-03-31T09:13:21.079Z,7.37
2019-03-31T09:15:50.574Z,5.23
2019-03-31T09:18:20.009Z,8.47
2019-03-31T09:20:49.630Z,10.20
2019-03-31T09:23:19.039Z,10.40
2019-03-31T09:25:48.421Z,5.20
2019-03-31T09:28:17.920Z,4.93
2019-03-31T09:30:47.364Z,6.00
2019-03-31T09:33:16.842Z,6.17
2019-03-31T09:35:46.327Z,6.70
2019-03-31T09:38:15.766Z,6.50
2019-03-31T09:40:45.266Z,6.00
2019-03-31T09:43:14.839Z,6.73
2019-03-31T09:45:44.335Z,5.43
2019-03-31T09:48:13.963Z,5.90
2019-03-31T09:50:43.451Z,6.07
2019-03-31T09:53:12.925Z,5.17
2019-03-31T09:55:42.405Z,5.30
2019-03-31T09:58:12.076Z,3.67
2019-03-31T10:00:48.976Z,8.37
2019-03-31T10:03:18.949Z,4.10
2019-03-31T10:05:48.683Z,4.63
2019-03-31T10:08:21.687Z,6.20
2019-03-31T10:10:49.768Z,6.87
2019-03-31T10:13:19.454Z,8.17
2019-03-31T10:15:49.026Z,7.10
2019-03-31T10:18:18.629Z,5.90
2019-03-31T10:20:48.070Z,6.80
2019-03-31T10:23:17.576Z,5.20
2019-03-31T10:25:47.234Z,6.67
2019-03-31T10:28:16.730Z,7.10
2019-03-31T10:30:46.327Z,9.77
2019-03-31T10:33:15.821Z,11.77
2019-03-31T10:35:45.744Z,7.80
2019-03-31T10:38:15.226Z,5.70
2019-03-31T10:40:44.800Z,3.83
2019-03-31T10:43:14.299Z,10.00
2019-03-31T10:45:43.811Z,4.93
2019-03-31T10:48:20.516Z,6.10
2019-03-31T10:50:44.641Z,8.77
2019-03-31T10:53:14.238Z,8.47
2019-03-31T10:55:43.848Z,5.73
2019-03-31T10:58:13.230Z,7.37
2019-03-31T11:00:44.546Z,6.63
2019-03-31T11:03:13.932Z,7.57
2019-03-31T11:05:43.460Z,4.37
2019-03-31T11:08:12.994Z,6.80
2019-03-31T11:10:42.643Z,9.37
2019-03-31T11:13:12.108Z,7.37
2019-03-31T11:15:41.530Z,5.10
2019-03-31T11:18:10.981Z,5.57
2019-03-31T11:20:40.698Z,7.13
2019-03-31T11:23:17.623Z,6.37
2019-03-31T11:25:47.160Z,4.73
2019-03-31T11:28:16.607Z,4.73
2019-03-31T11:30:46.304Z,9.60
2019-03-31T11:33:15.861Z,7.30
2019-03-31T11:35:45.289Z,10.53
2019-03-31T11:38:14.745Z,5.70
2019-03-31T11:40:44.329Z,6.47
2019-03-31T11:43:13.876Z,5.47
2019-03-31T11:45:43.435Z,6.97
2019-03-31T11:48:13.062Z,6.60
2019-03-31T11:50:42.514Z,5.03
2019-03-31T11:53:11.992Z,7.57
2019-03-31T11:55:41.459Z,6.60
2019-03-31T11:58:11.043Z,4.80
2019-03-31T12:00:46.117Z,9.77
2019-03-31T12:03:15.561Z,5.37
2019-03-31T12:05:45.077Z,8.87
2019-03-31T12:08:14.588Z,6.83
2019-03-31T12:10:44.102Z,6.20
2019-03-31T12:13:13.549Z,6.10
2019-03-31T12:15:43.210Z,7.80
2019-03-31T12:18:12.785Z,7.20
2019-03-31T12:20:42.233Z,11.83
2019-03-31T12:23:11.725Z,7.80
2019-03-31T12:25:41.185Z,8.07
2019-03-31T12:28:10.627Z,6.23
2019-03-31T12:30:40.356Z,8.30
2019-03-31T12:33:09.851Z,6.20
2019-03-31T12:35:39.304Z,8.77
2019-03-31T12:38:09.004Z,6.00
2019-03-31T12:40:38.685Z,4.17
2019-03-31T12:43:08.083Z,7.23
2019-03-31T12:45:37.876Z,5.57
2019-03-31T12:48:07.434Z,5.47
2019-03-31T12:50:37.268Z,5.87
2019-03-31T12:53:06.947Z,6.00
2019-03-31T12:55:36.644Z,5.43
2019-03-31T12:58:06.661Z,7.67
2019-03-31T13:00:36.183Z,5.83
2019-03-31T13:03:05.808Z,5.93
2019-03-31T13:05:35.453Z,7.20
2019-03-31T13:08:05.451Z,8.47
2019-03-31T13:10:36.510Z,10.40
2019-03-31T13:13:08.236Z,7.23
2019-03-31T13:15:37.764Z,7.80
2019-03-31T13:18:07.588Z,5.27
2019-03-31T13:20:37.135Z,6.13
2019-03-31T13:23:06.727Z,7.53
2019-03-31T13:25:36.175Z,6.63
2019-03-31T13:28:06.054Z,5.37
2019-03-31T13:30:35.835Z,6.63
2019-03-31T13:33:06.053Z,5.20
2019-03-31T13:35:35.827Z,6.13
2019-03-31T13:38:11.415Z,6.73
2019-03-31T13:40:37.022Z,5.63
2019-03-31T13:43:06.697Z,7.77
2019-03-31T13:45:36.315Z,5.37
2019-03-31T13:48:06.051Z,4.40
2019-03-31T13:50:35.718Z,9.70
2019-03-31T13:53:05.520Z,5.73
2019-03-31T13:55:35.089Z,5.93
2019-03-31T13:58:06.142Z,6.43
2019-03-31T14:00:38.188Z,7.70
2019-03-31T14:03:07.977Z,7.60
2019-03-31T14:05:37.788Z,7.13
2019-03-31T14:08:07.493Z,5.83
2019-03-31T14:10:37.155Z,6.57
2019-03-31T14:13:06.877Z,7.63
2019-03-31T14:15:36.379Z,8.67
2019-03-31T14:18:06.108Z,6.43
2019-03-31T14:20:35.683Z,6.20
2019-03-31T14:23:05.244Z,5.37
2019-03-31T14:25:34.756Z,4.43
2019-03-31T14:28:04.244Z,5.53
2019-03-31T14:30:33.779Z,7.70
2019-03-31T14:33:03.433Z,5.67
2019-03-31T14:35:33.055Z,7.33
2019-03-31T14:38:02.700Z,4.57
2019-03-31T14:40:32.305Z,6.50
2019-03-31T14:43:01.789Z,5.27
2019-03-31T14:45:38.120Z,5.80
2019-03-31T14:48:07.857Z,6.83
2019-03-31T14:50:38.874Z,5.37
2019-03-31T14:53:08.947Z,4.87
2019-03-31T14:55:39.284Z,6.83
2019-03-31T14:58:09.162Z,4.17
2019-03-31T15:00:38.715Z,4.63
2019-03-31T15:03:08.427Z,2.97
2019-03-31T15:05:38.007Z,5.13
2019-03-31T15:08:07.569Z,4.57
2019-03-31T15:10:37.146Z,3.97
2019-03-31T15:13:06.830Z,5.37
2019-03-31T15:15:36.561Z,6.53
2019-03-31T15:18:06.269Z,5.57
2019-03-31T15:20:35.780Z,3.30
2019-03-31T15:23:05.689Z,4.17
2019-03-31T15:25:35.382Z,4.47
2019-03-31T15:28:06.040Z,3.03
2019-03-31T15:30:35.560Z,3.43
2019-03-31T15:33:05.231Z,2.03
2019-03-31T15:35:37.556Z,6.33
2019-03-31T15:38:05.996Z,5.23
2019-03-31T15:40:35.553Z,4.57
2019-03-31T15:43:05.112Z,2.63
2019-03-31T15:45:34.642Z,3.57
2019-03-31T15:48:04.316Z,4.70
2019-03-31T15:50:33.868Z,4.83
2019-03-31T15:53:03.475Z,3.27
2019-03-31T15:55:33.195Z,3.30
2019-03-31T15:58:05.356Z,2.80
2019-03-31T16:00:34.007Z,3.97
2019-03-31T16:03:03.509Z,3.27
2019-03-31T16:05:32.980Z,4.87
2019-03-31T16:08:34.188Z,4.83
2019-03-31T16:11:04.942Z,5.20
2019-03-31T16:13:34.231Z,4.97
2019-03-31T16:16:03.705Z,3.13
2019-03-31T16:18:32.945Z,3.33
2019-03-31T16:21:02.057Z,4.80
2019-03-31T16:23:31.086Z,4.63
2019-03-31T16:26:00.072Z,3.57
2019-03-31T16:28:29.153Z,4.47
2019-03-31T16:30:58.309Z,3.30
2019-03-31T16:33:27.436Z,4.07
2019-03-31T16:35:56.427Z,2.37
2019-03-31T16:38:25.971Z,2.70
2019-03-31T16:40:55.627Z,4.50
2019-03-31T16:43:24.689Z,5.47
2019-03-31T16:45:53.881Z,7.20
2019-03-31T16:48:22.765Z,6.80
2019-03-31T16:50:51.998Z,10.77
2019-03-31T16:53:20.986Z,5.07
2019-03-31T16:55:52.483Z,7.07
2019-03-31T16:58:22.426Z,5.13
2019-03-31T17:00:51.413Z,8.77
2019-03-31T17:03:20.563Z,6.97
2019-03-31T17:05:49.469Z,6.90
2019-03-31T17:08:18.360Z,6.40
2019-03-31T17:10:47.445Z,5.30
2019-03-31T17:13:16.496Z,4.20
2019-03-31T17:15:45.637Z,8.10
2019-03-31T17:18:14.615Z,5.80
2019-03-31T17:20:43.475Z,7.80
2019-03-31T17:23:12.496Z,6.43
2019-03-31T17:25:41.533Z,5.93
2019-03-31T17:28:10.556Z,6.47
2019-03-31T17:30:40.207Z,6.20
2019-03-31T17:33:09.300Z,8.20
2019-03-31T17:35:38.359Z,6.97
2019-03-31T17:38:07.374Z,8.63
2019-03-31T17:40:37.958Z,7.50
2019-03-31T17:43:08.939Z,9.43
2019-03-31T17:45:41.040Z,5.87
2019-03-31T17:48:12.132Z,10.73
2019-03-31T17:50:42.964Z,6.17
2019-03-31T17:53:13.654Z,7.37
2019-03-31T17:55:44.706Z,6.60
2019-03-31T17:58:16.061Z,7.20
2019-03-31T18:00:47.964Z,5.37
2019-03-31T18:03:18.854Z,8.83
2019-03-31T18:05:47.995Z,4.97
2019-03-31T18:08:17.065Z,7.07
2019-03-31T18:10:47.997Z,6.83
2019-03-31T18:13:17.027Z,6.20
2019-03-31T18:15:46.003Z,9.07
2019-03-31T18:18:14.873Z,6.47
2019-03-31T18:20:43.785Z,6.83
2019-03-31T18:23:12.761Z,7.33
2019-03-31T18:25:41.757Z,5.97
2019-03-31T18:28:10.667Z,6.93
2019-03-31T18:30:39.555Z,5.10
2019-03-31T18:33:08.583Z,7.80
2019-03-31T18:35:39.729Z,7.20
2019-03-31T18:38:08.828Z,5.73
2019-03-31T18:40:37.987Z,6.73
2019-03-31T18:43:06.952Z,4.27
2019-03-31T18:45:36.016Z,5.77
2019-03-31T18:48:05.231Z,6.03
2019-03-31T18:50:34.344Z,7.93
2019-03-31T18:53:04.035Z,7.37
2019-03-31T18:55:52.263Z,6.00
2019-03-31T18:58:40.304Z,4.17
2019-03-31T19:01:21.864Z,5.33
2019-03-31T19:04:33.848Z,4.77
2019-03-31T19:07:13.711Z,7.70
2019-03-31T19:10:23.703Z,8.53
2019-03-31T19:12:46.748Z,4.93
2019-03-31T19:15:27.683Z,7.07
2019-03-31T19:18:19.527Z,8.30
2019-03-31T19:21:10.926Z,7.37
2019-03-31T19:23:48.996Z,7.90
2019-03-31T19:26:48.267Z,6.10
2019-03-31T19:29:36.609Z,6.00
2019-03-31T19:32:31.500Z,7.07
2019-03-31T19:35:14.307Z,8.57
2019-03-31T19:37:51.495Z,5.73
2019-03-31T19:40:33.488Z,7.80
2019-03-31T19:43:17.134Z,4.63
2019-03-31T19:45:54.954Z,6.70
2019-03-31T19:48:42.398Z,7.00
2019-03-31T19:51:34.426Z,6.67
2019-03-31T19:54:29.053Z,8.67
2019-03-31T19:57:11.903Z,10.93
2019-03-31T20:00:04.698Z,8.40
2019-03-31T20:03:10.827Z,8.10
2019-03-31T20:05:57.450Z,9.33
2019-03-31T20:08:50.999Z,8.10
2019-03-31T20:11:39.373Z,3.53
2019-03-31T20:14:28.406Z,7.43
2019-03-31T20:17:12.400Z,6.80
2019-03-31T20:20:00.971Z,6.27
2019-03-31T20:22:39.802Z,8.07
2019-03-31T20:25:34.924Z,7.13
2019-03-31T20:28:20.104Z,5.07
2019-03-31T20:31:05.386Z,10.17
2019-03-31T20:33:47.767Z,16.97
2019-03-31T20:36:24.291Z,11.83
2019-03-31T20:39:02.214Z,7.40
2019-03-31T20:41:51.453Z,6.97
2019-03-31T20:44:21.435Z,6.73
2019-03-31T20:46:51.519Z,4.53
2019-03-31T20:49:22.567Z,3.73
2019-03-31T20:51:53.499Z,4.77
2019-03-31T20:54:23.502Z,6.43
2019-03-31T20:56:52.322Z,4.63
2019-03-31T20:59:21.184Z,8.77
2019-03-31T21:01:50.080Z,3.80
2019-03-31T21:04:18.911Z,4.23
2019-03-31T21:06:47.727Z,7.07
2019-03-31T21:09:16.561Z,2.77
2019-03-31T21:11:45.392Z,3.60
2019-03-31T21:14:14.236Z,4.07
2019-03-31T21:16:43.081Z,5.77
2019-03-31T21:19:11.946Z,7.30
2019-03-31T21:21:40.847Z,4.40
2019-03-31T21:24:09.739Z,8.00
2019-03-31T21:26:38.580Z,5.33
2019-03-31T21:29:07.396Z,5.93
2019-03-31T21:31:36.223Z,5.93
2019-03-31T21:34:05.176Z,3.87
2019-03-31T21:36:34.034Z,5.73
2019-03-31T21:39:03.875Z,6.37
2019-03-31T21:41:32.712Z,6.67
2019-03-31T21:44:01.515Z,4.37
2019-03-31T21:46:30.351Z,3.77
2019-03-31T21:48:59.176Z,3.63
2019-03-31T21:51:28.083Z,4.07
2019-03-31T21:53:56.915Z,6.20
2019-03-31T21:56:25.758Z,3.53
2019-03-31T21:58:54.587Z,4.87
2019-03-31T22:01:23.619Z,6.50
2019-03-31T22:03:52.568Z,4.27
2019-03-31T22:06:21.406Z,4.90
2019-03-31T22:08:50.300Z,4.87
2019-03-31T22:11:20.028Z,7.27
2019-03-31T22:13:48.826Z,4.00
2019-03-31T22:16:17.671Z,4.23
2019-03-31T22:18:46.495Z,4.80
2019-03-31T22:21:15.314Z,4.40
2019-03-31T22:23:57.157Z,4.27
2019-03-31T22:26:14.705Z,5.00
2019-03-31T22:28:43.567Z,3.07
2019-03-31T22:31:12.504Z,4.17
2019-03-31T22:33:41.419Z,7.10
2019-03-31T22:36:22.652Z,4.67
2019-03-31T22:38:52.416Z,3.67
2019-03-31T22:41:21.522Z,6.97
2019-03-31T22:43:50.500Z,6.63
2019-03-31T22:46:19.559Z,7.80
2019-03-31T22:48:48.463Z,4.47
2019-03-31T22:51:17.419Z,5.57
2019-03-31T22:53:46.357Z,5.97
2019-03-31T22:56:15.249Z,6.57
2019-03-31T22:58:44.111Z,6.53
2019-03-31T23:01:12.940Z,5.70
2019-03-31T23:03:41.923Z,8.27
2019-03-31T23:06:10.809Z,6.13
2019-03-31T23:08:39.748Z,4.73
2019-03-31T23:11:08.710Z,4.93
2019-03-31T23:13:37.547Z,7.73
2019-03-31T23:16:06.433Z,5.57
2019-03-31T23:18:35.374Z,5.03
2019-03-31T23:21:04.354Z,7.00
2019-03-31T23:23:33.215Z,4.50
2019-03-31T23:26:02.035Z,4.27
2019-03-31T23:28:30.882Z,6.27
2019-03-31T23:30:59.695Z,6.60
2019-03-31T23:33:28.538Z,6.73
2019-03-31T23:35:57.419Z,8.20
2019-03-31T23:38:26.287Z,6.33
2019-03-31T23:40:55.122Z,4.23
2019-03-31T23:43:24.045Z,6.17
2019-03-31T23:45:52.929Z,8.63
2019-03-31T23:48:21.850Z,6.03
2019-03-31T23:50:50.672Z,7.10
2019-03-31T23:53:19.488Z,5.80
2019-03-31T23:55:48.317Z,3.40
2019-03-31T23:58:17.144Z,6.40
